createdAt,value
2018-12-02T00:00:09.753Z,0.00
2018-12-02T00:01:09.768Z,0.00
2018-12-02T00:02:09.786Z,0.00
2018-12-02T00:03:09.804Z,0.00
2018-12-02T00:04:09.820Z,0.00
2018-12-02T00:05:09.834Z,0.00
2018-12-02T00:06:09.850Z,0.00
2018-12-02T00:07:09.867Z,0.00
2018-12-02T00:08:09.886Z,0.00
2018-12-02T00:09:09.946Z,0.00
2018-12-02T00:10:09.919Z,0.00
2018-12-02T00:11:09.935Z,0.00
2018-12-02T00:12:09.949Z,0.00
2018-12-02T00:13:09.967Z,0.00
2018-12-02T00:14:09.981Z,0.00
2018-12-02T00:15:10.001Z,0.00
2018-12-02T00:16:10.014Z,0.00
2018-12-02T00:17:10.033Z,0.00
2018-12-02T00:18:10.047Z,0.00
2018-12-02T00:19:10.068Z,0.00
2018-12-02T00:20:10.085Z,0.00
2018-12-02T00:21:10.102Z,0.00
2018-12-02T00:22:10.118Z,0.00
2018-12-02T00:23:10.130Z,0.00
2018-12-02T00:24:10.145Z,0.00
2018-12-02T00:25:10.163Z,0.00
2018-12-02T00:26:10.182Z,0.00
2018-12-02T00:27:10.197Z,0.00
2018-12-02T00:28:10.214Z,0.00
2018-12-02T00:29:10.229Z,0.00
2018-12-02T00:30:10.247Z,0.00
2018-12-02T00:31:10.270Z,0.00
2018-12-02T00:32:10.278Z,0.00
2018-12-02T00:33:10.299Z,0.00
2018-12-02T00:34:10.311Z,0.00
2018-12-02T00:35:10.331Z,0.00
2018-12-02T00:36:10.346Z,0.00
2018-12-02T00:37:10.364Z,0.00
2018-12-02T00:38:10.378Z,0.00
2018-12-02T00:39:10.395Z,0.00
2018-12-02T00:40:10.410Z,0.00
2018-12-02T00:41:10.433Z,0.00
2018-12-02T00:42:10.445Z,0.00
2018-12-02T00:43:10.461Z,0.00
2018-12-02T00:44:10.477Z,0.00
2018-12-02T00:45:10.493Z,0.00
2018-12-02T00:46:10.511Z,0.00
2018-12-02T00:47:10.527Z,0.00
2018-12-02T00:48:10.543Z,0.00
2018-12-02T00:49:10.561Z,0.00
2018-12-02T00:50:10.577Z,0.00
2018-12-02T00:51:10.594Z,0.00
2018-12-02T00:52:10.613Z,0.00
2018-12-02T00:53:10.628Z,0.00
2018-12-02T00:54:10.647Z,0.00
2018-12-02T00:55:10.663Z,0.00
2018-12-02T00:56:10.674Z,0.00
2018-12-02T00:57:10.693Z,0.00
2018-12-02T00:58:10.714Z,0.00
2018-12-02T00:59:10.730Z,0.00
2018-12-02T01:00:10.748Z,0.00
2018-12-02T01:01:10.762Z,0.00
2018-12-02T01:02:10.781Z,0.00
2018-12-02T01:03:10.798Z,0.00
2018-12-02T01:04:10.810Z,0.00
2018-12-02T01:05:10.829Z,0.00
2018-12-02T01:06:10.844Z,0.00
2018-12-02T01:07:10.862Z,0.00
2018-12-02T01:08:10.882Z,0.00
2018-12-02T01:09:10.895Z,0.00
2018-12-02T01:10:10.913Z,0.00
2018-12-02T01:11:10.932Z,0.00
2018-12-02T01:12:10.945Z,0.00
2018-12-02T01:13:10.966Z,0.00
2018-12-02T01:14:10.981Z,0.00
2018-12-02T01:15:10.996Z,0.00
2018-12-02T01:16:11.015Z,0.00
2018-12-02T01:17:11.047Z,0.00
2018-12-02T01:18:11.049Z,0.00
2018-12-02T01:19:11.065Z,0.00
2018-12-02T01:20:11.081Z,0.00
2018-12-02T01:21:11.103Z,0.00
2018-12-02T01:22:11.166Z,0.00
2018-12-02T01:23:11.133Z,0.00
2018-12-02T01:24:11.151Z,0.00
2018-12-02T01:25:11.167Z,0.00
2018-12-02T01:26:11.184Z,0.00
2018-12-02T01:27:11.202Z,0.00
2018-12-02T01:28:11.225Z,0.00
2018-12-02T01:29:11.236Z,0.00
2018-12-02T01:30:11.254Z,0.00
2018-12-02T01:31:11.275Z,0.00
2018-12-02T01:32:11.288Z,0.00
2018-12-02T01:33:11.307Z,0.00
2018-12-02T01:34:11.325Z,0.00
2018-12-02T01:35:11.345Z,0.00
2018-12-02T01:36:11.359Z,0.00
2018-12-02T01:37:11.377Z,0.00
2018-12-02T01:38:11.394Z,0.00
2018-12-02T01:39:11.411Z,0.00
2018-12-02T01:40:11.429Z,0.00
2018-12-02T01:41:11.449Z,0.00
2018-12-02T01:42:11.467Z,0.00
2018-12-02T01:43:11.484Z,0.00
2018-12-02T01:44:11.500Z,0.00
2018-12-02T01:45:11.522Z,0.00
2018-12-02T01:46:11.536Z,0.00
2018-12-02T01:47:11.553Z,0.00
2018-12-02T01:48:11.570Z,0.00
2018-12-02T01:49:11.590Z,0.00
2018-12-02T01:50:11.607Z,0.00
2018-12-02T01:51:11.627Z,0.00
2018-12-02T01:52:11.640Z,0.00
2018-12-02T01:53:11.658Z,0.00
2018-12-02T01:54:11.680Z,0.00
2018-12-02T01:55:11.695Z,0.00
2018-12-02T01:56:11.713Z,0.00
2018-12-02T01:57:11.729Z,0.00
2018-12-02T01:58:11.750Z,0.00
2018-12-02T01:59:11.763Z,0.00
2018-12-02T02:00:11.781Z,0.00
2018-12-02T02:01:11.799Z,0.00
2018-12-02T02:02:11.818Z,0.00
2018-12-02T02:03:11.837Z,0.00
2018-12-02T02:04:11.853Z,0.00
2018-12-02T02:05:11.873Z,0.00
2018-12-02T02:06:11.891Z,0.00
2018-12-02T02:07:11.906Z,0.00
2018-12-02T02:08:11.925Z,0.00
2018-12-02T02:09:11.944Z,0.00
2018-12-02T02:10:11.959Z,0.00
2018-12-02T02:11:11.980Z,0.00
2018-12-02T02:12:11.998Z,0.00
2018-12-02T02:13:12.013Z,0.00
2018-12-02T02:14:12.031Z,0.00
2018-12-02T02:15:12.051Z,0.00
2018-12-02T02:16:12.068Z,0.00
2018-12-02T02:17:12.094Z,0.00
2018-12-02T02:18:12.105Z,0.00
2018-12-02T02:19:12.124Z,0.00
2018-12-02T02:20:12.142Z,0.00
2018-12-02T02:21:12.158Z,0.00
2018-12-02T02:22:12.177Z,0.00
2018-12-02T02:23:12.194Z,0.00
2018-12-02T02:24:12.212Z,0.00
2018-12-02T02:25:12.228Z,0.00
2018-12-02T02:26:12.247Z,0.00
2018-12-02T02:27:12.266Z,0.00
2018-12-02T02:28:12.282Z,0.00
2018-12-02T02:29:12.305Z,0.00
2018-12-02T02:30:12.326Z,0.00
2018-12-02T02:31:12.341Z,0.00
2018-12-02T02:32:12.358Z,0.00
2018-12-02T02:33:12.374Z,0.00
2018-12-02T02:34:12.396Z,0.00
2018-12-02T02:35:12.410Z,0.00
2018-12-02T02:36:12.429Z,0.00
2018-12-02T02:37:12.450Z,0.00
2018-12-02T02:38:12.464Z,0.00
2018-12-02T02:39:12.492Z,0.00
2018-12-02T02:40:12.503Z,0.00
2018-12-02T02:41:12.521Z,0.00
2018-12-02T02:42:12.541Z,0.00
2018-12-02T02:43:12.560Z,0.00
2018-12-02T02:44:12.575Z,0.00
2018-12-02T02:45:12.621Z,0.00
2018-12-02T02:46:12.611Z,0.00
2018-12-02T02:47:12.634Z,0.00
2018-12-02T02:48:12.649Z,0.00
2018-12-02T02:49:12.670Z,0.00
2018-12-02T02:50:12.685Z,0.00
2018-12-02T02:51:12.705Z,0.00
2018-12-02T02:52:12.722Z,0.00
2018-12-02T02:53:12.740Z,0.00
2018-12-02T02:54:12.758Z,0.00
2018-12-02T02:55:12.779Z,0.00
2018-12-02T02:56:12.796Z,0.00
2018-12-02T02:57:12.813Z,0.00
2018-12-02T02:58:12.837Z,0.00
2018-12-02T02:59:12.851Z,0.00
2018-12-02T03:00:12.883Z,0.00
2018-12-02T03:01:12.887Z,0.00
2018-12-02T03:02:12.907Z,0.00
2018-12-02T03:03:12.928Z,0.00
2018-12-02T03:04:12.942Z,0.00
2018-12-02T03:05:12.962Z,0.00
2018-12-02T03:06:12.983Z,0.00
2018-12-02T03:07:13.008Z,0.00
2018-12-02T03:08:13.060Z,0.00
2018-12-02T03:09:13.043Z,0.00
2018-12-02T03:10:13.054Z,0.00
2018-12-02T03:11:13.074Z,0.00
2018-12-02T03:12:13.091Z,0.00
2018-12-02T03:13:13.117Z,0.00
2018-12-02T03:14:13.135Z,0.00
2018-12-02T03:15:13.147Z,0.00
2018-12-02T03:16:13.165Z,0.00
2018-12-02T03:17:13.183Z,0.00
2018-12-02T03:18:13.203Z,0.00
2018-12-02T03:19:13.224Z,0.00
2018-12-02T03:20:13.242Z,0.00
2018-12-02T03:21:13.259Z,0.00
2018-12-02T03:22:13.278Z,0.00
2018-12-02T03:23:13.297Z,0.00
2018-12-02T03:24:13.317Z,0.00
2018-12-02T03:25:13.335Z,0.00
2018-12-02T03:26:13.354Z,0.00
2018-12-02T03:27:13.370Z,0.00
2018-12-02T03:28:13.396Z,0.00
2018-12-02T03:29:13.409Z,0.00
2018-12-02T03:30:13.431Z,0.00
2018-12-02T03:31:13.445Z,0.00
2018-12-02T03:32:13.464Z,0.00
2018-12-02T03:33:13.486Z,0.00
2018-12-02T03:34:13.504Z,0.00
2018-12-02T03:35:13.523Z,0.00
2018-12-02T03:36:13.539Z,0.00
2018-12-02T03:37:13.556Z,0.00
2018-12-02T03:38:13.578Z,0.00
2018-12-02T03:39:13.597Z,0.00
2018-12-02T03:40:13.613Z,0.00
2018-12-02T03:41:13.633Z,0.00
2018-12-02T03:42:13.654Z,0.00
2018-12-02T03:43:13.672Z,0.00
2018-12-02T03:44:13.688Z,0.00
2018-12-02T03:45:13.708Z,0.00
2018-12-02T03:46:13.725Z,0.00
2018-12-02T03:47:13.746Z,0.00
2018-12-02T03:48:13.767Z,0.00
2018-12-02T03:49:13.785Z,0.00
2018-12-02T03:50:17.491Z,0.00
2018-12-02T03:51:13.826Z,0.00
2018-12-02T03:52:13.837Z,0.00
2018-12-02T03:53:13.859Z,0.00
2018-12-02T03:54:13.876Z,0.00
2018-12-02T03:55:13.900Z,0.00
2018-12-02T03:56:13.914Z,0.00
2018-12-02T03:57:13.934Z,0.00
2018-12-02T03:58:13.950Z,0.00
2018-12-02T03:59:13.974Z,0.00
2018-12-02T04:00:13.993Z,0.00
2018-12-02T04:01:14.012Z,0.00
2018-12-02T04:02:14.030Z,0.00
2018-12-02T04:03:14.047Z,0.00
2018-12-02T04:04:14.066Z,0.00
2018-12-02T04:05:14.087Z,0.00
2018-12-02T04:06:14.106Z,0.00
2018-12-02T04:07:14.122Z,0.00
2018-12-02T04:08:14.143Z,0.00
2018-12-02T04:09:14.162Z,0.00
2018-12-02T04:10:14.180Z,0.00
2018-12-02T04:11:14.198Z,0.00
2018-12-02T04:12:14.216Z,0.00
2018-12-02T04:13:14.235Z,0.00
2018-12-02T04:14:14.255Z,0.00
2018-12-02T04:15:14.275Z,0.00
2018-12-02T04:16:14.296Z,0.00
2018-12-02T04:17:14.312Z,0.00
2018-12-02T04:18:14.330Z,0.00
2018-12-02T04:19:14.354Z,0.00
2018-12-02T04:20:14.368Z,0.00
2018-12-02T04:21:14.387Z,0.00
2018-12-02T04:22:14.410Z,0.00
2018-12-02T04:23:14.427Z,0.00
2018-12-02T04:24:14.444Z,0.00
2018-12-02T04:25:14.465Z,0.00
2018-12-02T04:26:14.483Z,0.00
2018-12-02T04:27:14.506Z,0.00
2018-12-02T04:28:14.556Z,0.00
2018-12-02T04:29:14.539Z,0.00
2018-12-02T04:30:14.564Z,0.00
2018-12-02T04:31:14.577Z,0.00
2018-12-02T04:32:14.594Z,0.00
2018-12-02T04:33:14.616Z,0.00
2018-12-02T04:34:14.635Z,0.00
2018-12-02T04:35:14.660Z,0.00
2018-12-02T04:36:14.670Z,0.00
2018-12-02T04:37:14.692Z,0.00
2018-12-02T04:38:14.708Z,0.00
2018-12-02T04:39:14.728Z,0.00
2018-12-02T04:40:14.749Z,0.00
2018-12-02T04:41:14.768Z,0.00
2018-12-02T04:42:14.786Z,0.00
2018-12-02T04:43:14.806Z,0.00
2018-12-02T04:44:14.824Z,0.00
2018-12-02T04:45:14.841Z,0.00
2018-12-02T04:46:14.859Z,0.00
2018-12-02T04:47:14.879Z,0.00
2018-12-02T04:48:14.898Z,0.00
2018-12-02T04:49:14.914Z,0.00
2018-12-02T04:50:14.935Z,0.00
2018-12-02T04:51:14.953Z,0.00
2018-12-02T04:52:14.973Z,0.00
2018-12-02T04:53:14.992Z,0.00
2018-12-02T04:54:15.009Z,0.00
2018-12-02T04:55:15.031Z,0.00
2018-12-02T04:56:15.048Z,0.00
2018-12-02T04:57:15.065Z,0.00
2018-12-02T04:58:15.086Z,0.00
2018-12-02T04:59:15.104Z,0.00
2018-12-02T05:00:15.122Z,0.00
2018-12-02T05:01:15.141Z,0.00
2018-12-02T05:02:15.159Z,0.00
2018-12-02T05:03:15.182Z,0.00
2018-12-02T05:04:15.197Z,0.00
2018-12-02T05:05:15.217Z,0.00
2018-12-02T05:06:15.240Z,0.00
2018-12-02T05:07:15.254Z,0.00
2018-12-02T05:08:15.274Z,0.00
2018-12-02T05:09:15.291Z,0.00
2018-12-02T05:10:15.312Z,0.00
2018-12-02T05:11:15.329Z,0.00
2018-12-02T05:12:15.347Z,0.00
2018-12-02T05:13:15.368Z,0.00
2018-12-02T05:14:15.386Z,0.00
2018-12-02T05:15:15.408Z,0.00
2018-12-02T05:16:15.422Z,0.00
2018-12-02T05:17:15.445Z,0.00
2018-12-02T05:18:15.464Z,0.00
2018-12-02T05:19:15.480Z,0.00
2018-12-02T05:20:15.499Z,0.00
2018-12-02T05:21:15.518Z,0.00
2018-12-02T05:22:15.537Z,0.00
2018-12-02T05:23:15.557Z,0.00
2018-12-02T05:24:15.574Z,0.00
2018-12-02T05:25:17.874Z,0.00
2018-12-02T05:26:15.612Z,0.00
2018-12-02T05:27:15.631Z,0.00
2018-12-02T05:28:15.652Z,0.00
2018-12-02T05:29:15.671Z,0.00
2018-12-02T05:30:15.687Z,0.00
2018-12-02T05:31:15.705Z,0.00
2018-12-02T05:32:15.723Z,0.00
2018-12-02T05:33:15.747Z,0.00
2018-12-02T05:34:15.763Z,0.00
2018-12-02T05:35:15.784Z,0.00
2018-12-02T05:36:15.800Z,0.00
2018-12-02T05:37:15.818Z,0.00
2018-12-02T05:38:15.838Z,0.00
2018-12-02T05:39:15.857Z,0.00
2018-12-02T05:40:15.876Z,0.00
2018-12-02T05:41:15.898Z,0.00
2018-12-02T05:42:15.918Z,0.00
2018-12-02T05:43:15.931Z,0.00
2018-12-02T05:44:15.949Z,0.00
2018-12-02T05:45:15.968Z,0.00
2018-12-02T05:46:15.988Z,0.00
2018-12-02T05:47:16.008Z,0.00
2018-12-02T05:48:16.025Z,0.00
2018-12-02T05:49:16.047Z,0.00
2018-12-02T05:50:16.061Z,0.00
2018-12-02T05:51:16.081Z,0.00
2018-12-02T05:52:16.100Z,0.00
2018-12-02T05:53:16.119Z,0.00
2018-12-02T05:54:16.139Z,0.00
2018-12-02T05:55:16.166Z,0.00
2018-12-02T05:56:16.175Z,0.00
2018-12-02T05:57:16.197Z,0.00
2018-12-02T05:58:16.216Z,0.00
2018-12-02T05:59:16.233Z,0.00
2018-12-02T06:00:16.254Z,0.00
2018-12-02T06:01:16.272Z,0.00
2018-12-02T06:02:16.289Z,0.00
2018-12-02T06:03:16.312Z,0.00
2018-12-02T06:04:16.327Z,0.00
2018-12-02T06:05:16.349Z,0.00
2018-12-02T06:06:16.368Z,0.00
2018-12-02T06:07:16.384Z,0.00
2018-12-02T06:08:16.406Z,0.00
2018-12-02T06:09:16.423Z,0.00
2018-12-02T06:10:16.442Z,0.00
2018-12-02T06:11:16.464Z,0.00
2018-12-02T06:12:16.482Z,0.00
2018-12-02T06:13:16.500Z,0.00
2018-12-02T06:14:16.516Z,0.00
2018-12-02T06:15:16.539Z,0.00
2018-12-02T06:16:16.557Z,0.00
2018-12-02T06:17:16.577Z,0.00
2018-12-02T06:18:16.593Z,0.00
2018-12-02T06:19:16.615Z,0.00
2018-12-02T06:20:16.632Z,0.00
2018-12-02T06:21:16.653Z,0.00
2018-12-02T06:22:16.671Z,0.00
2018-12-02T06:23:16.688Z,0.00
2018-12-02T06:24:16.712Z,0.00
2018-12-02T06:25:16.729Z,0.00
2018-12-02T06:26:16.745Z,0.00
2018-12-02T06:27:16.766Z,0.00
2018-12-02T06:28:16.783Z,0.00
2018-12-02T06:29:16.802Z,0.00
2018-12-02T06:30:16.823Z,0.00
2018-12-02T06:31:16.845Z,0.00
2018-12-02T06:32:16.860Z,0.00
2018-12-02T06:33:16.879Z,0.00
2018-12-02T06:34:16.896Z,0.00
2018-12-02T06:35:16.920Z,0.00
2018-12-02T06:36:16.936Z,0.00
2018-12-02T06:37:16.955Z,0.00
2018-12-02T06:38:16.973Z,0.00
2018-12-02T06:39:16.993Z,0.00
2018-12-02T06:40:17.012Z,0.00
2018-12-02T06:41:17.033Z,0.00
2018-12-02T06:42:17.048Z,0.00
2018-12-02T06:43:17.071Z,0.00
2018-12-02T06:44:17.089Z,5.63
2018-12-02T06:45:17.106Z,5.63
2018-12-02T06:46:17.130Z,5.63
2018-12-02T06:47:17.146Z,5.63
2018-12-02T06:48:17.164Z,5.63
2018-12-02T06:49:17.186Z,5.63
2018-12-02T06:50:17.206Z,5.63
2018-12-02T06:51:17.222Z,5.63
2018-12-02T06:52:17.242Z,5.63
2018-12-02T06:53:17.262Z,5.63
2018-12-02T06:54:17.280Z,11.25
2018-12-02T06:55:17.302Z,11.25
2018-12-02T06:56:17.316Z,11.25
2018-12-02T06:57:17.336Z,11.25
2018-12-02T06:58:17.359Z,11.25
2018-12-02T06:59:17.374Z,11.25
2018-12-02T07:00:17.392Z,11.25
2018-12-02T07:01:17.412Z,11.25
2018-12-02T07:02:17.432Z,11.25
2018-12-02T07:03:17.452Z,11.25
2018-12-02T07:04:17.467Z,11.25
2018-12-02T07:05:17.488Z,11.25
2018-12-02T07:06:17.509Z,16.88
2018-12-02T07:07:17.533Z,16.88
2018-12-02T07:08:17.545Z,16.88
2018-12-02T07:09:18.811Z,16.88
2018-12-02T07:10:17.583Z,16.88
2018-12-02T07:11:17.607Z,16.88
2018-12-02T07:12:17.624Z,16.88
2018-12-02T07:13:17.645Z,16.88
2018-12-02T07:14:17.662Z,16.88
2018-12-02T07:15:17.685Z,16.88
2018-12-02T07:16:17.744Z,16.88
2018-12-02T07:17:17.723Z,16.88
2018-12-02T07:18:17.740Z,16.88
2018-12-02T07:19:17.761Z,16.88
2018-12-02T07:20:17.778Z,16.88
2018-12-02T07:21:17.798Z,16.88
2018-12-02T07:22:17.820Z,16.88
2018-12-02T07:23:17.839Z,16.88
2018-12-02T07:24:17.855Z,16.88
2018-12-02T07:25:17.874Z,16.88
2018-12-02T07:26:17.946Z,22.50
2018-12-02T07:27:17.960Z,22.50
2018-12-02T07:28:17.979Z,22.50
2018-12-02T07:29:17.998Z,22.50
2018-12-02T07:30:18.017Z,22.50
2018-12-02T07:31:18.037Z,22.50
2018-12-02T07:32:18.062Z,22.50
2018-12-02T07:33:18.075Z,28.13
2018-12-02T07:34:18.096Z,28.13
2018-12-02T07:35:18.115Z,28.13
2018-12-02T07:36:18.133Z,28.13
2018-12-02T07:37:18.154Z,28.13
2018-12-02T07:38:18.174Z,28.13
2018-12-02T07:39:18.192Z,33.75
2018-12-02T07:40:18.212Z,33.75
2018-12-02T07:41:18.232Z,33.75
2018-12-02T07:42:18.253Z,33.75
2018-12-02T07:43:18.315Z,33.75
2018-12-02T07:44:18.286Z,33.75
2018-12-02T07:45:18.306Z,28.13
2018-12-02T07:46:18.325Z,28.13
2018-12-02T07:47:18.347Z,28.13
2018-12-02T07:48:18.366Z,28.13
2018-12-02T07:49:18.386Z,33.75
2018-12-02T07:50:18.403Z,33.75
2018-12-02T07:51:18.426Z,33.75
2018-12-02T07:52:18.442Z,33.75
2018-12-02T07:53:18.462Z,39.38
2018-12-02T07:54:18.480Z,39.38
2018-12-02T07:55:18.504Z,39.38
2018-12-02T07:56:18.521Z,45.00
2018-12-02T07:57:18.537Z,45.00
2018-12-02T07:58:18.556Z,45.00
2018-12-02T07:59:18.576Z,45.00
2018-12-02T08:00:18.597Z,45.00
2018-12-02T08:01:18.616Z,50.63
2018-12-02T08:02:18.634Z,50.63
2018-12-02T08:03:18.655Z,50.63
2018-12-02T08:04:18.675Z,50.63
2018-12-02T08:05:18.694Z,56.25
2018-12-02T08:06:18.710Z,56.25
2018-12-02T08:07:18.730Z,56.25
2018-12-02T08:08:18.749Z,61.88
2018-12-02T08:09:18.771Z,61.88
2018-12-02T08:10:18.789Z,56.25
2018-12-02T08:11:18.809Z,56.25
2018-12-02T08:12:19.344Z,56.25
2018-12-02T08:13:18.851Z,56.25
2018-12-02T08:14:18.866Z,56.25
2018-12-02T08:15:18.894Z,56.25
2018-12-02T08:16:18.907Z,61.88
2018-12-02T08:17:18.936Z,56.25
2018-12-02T08:18:18.944Z,56.25
2018-12-02T08:19:19.002Z,56.25
2018-12-02T08:20:18.986Z,56.25
2018-12-02T08:21:19.018Z,50.63
2018-12-02T08:22:19.036Z,50.63
2018-12-02T08:23:19.094Z,50.63
2018-12-02T08:24:19.167Z,50.63
2018-12-02T08:25:19.080Z,50.63
2018-12-02T08:26:19.100Z,50.63
2018-12-02T08:27:19.119Z,50.63
2018-12-02T08:28:19.140Z,56.25
2018-12-02T08:29:19.160Z,56.25
2018-12-02T08:30:19.180Z,56.25
2018-12-02T08:31:19.205Z,56.25
2018-12-02T08:32:19.230Z,56.25
2018-12-02T08:33:19.246Z,61.88
2018-12-02T08:34:19.258Z,61.88
2018-12-02T08:35:19.514Z,61.88
2018-12-02T08:36:19.298Z,61.88
2018-12-02T08:37:19.317Z,61.88
2018-12-02T08:38:19.337Z,61.88
2018-12-02T08:39:19.537Z,67.50
2018-12-02T08:40:19.376Z,67.50
2018-12-02T08:41:19.396Z,67.50
2018-12-02T08:42:19.415Z,67.50
2018-12-02T08:43:19.437Z,67.50
2018-12-02T08:44:19.788Z,67.50
2018-12-02T08:45:19.521Z,67.50
2018-12-02T08:46:19.496Z,67.50
2018-12-02T08:47:19.521Z,73.13
2018-12-02T08:48:19.533Z,73.13
2018-12-02T08:49:19.554Z,73.13
2018-12-02T08:50:19.893Z,67.50
2018-12-02T08:51:19.594Z,67.50
2018-12-02T08:52:19.615Z,73.13
2018-12-02T08:53:19.633Z,73.13
2018-12-02T08:54:19.769Z,67.50
2018-12-02T08:55:19.673Z,67.50
2018-12-02T08:56:19.695Z,67.50
2018-12-02T08:57:19.712Z,67.50
2018-12-02T08:58:19.739Z,73.13
2018-12-02T08:59:19.955Z,73.13
2018-12-02T09:00:19.885Z,73.13
2018-12-02T09:01:19.791Z,73.13
2018-12-02T09:02:19.811Z,73.13
2018-12-02T09:03:19.837Z,78.75
2018-12-02T09:04:19.856Z,84.38
2018-12-02T09:05:19.872Z,90.00
2018-12-02T09:06:19.893Z,90.00
2018-12-02T09:07:19.913Z,90.00
2018-12-02T09:08:19.931Z,90.00
2018-12-02T09:09:19.950Z,90.00
2018-12-02T09:10:19.970Z,95.63
2018-12-02T09:11:20.049Z,95.63
2018-12-02T09:12:20.011Z,101.25
2018-12-02T09:13:20.030Z,106.88
2018-12-02T09:14:20.050Z,101.25
2018-12-02T09:15:20.070Z,95.63
2018-12-02T09:16:20.090Z,90.00
2018-12-02T09:17:20.111Z,90.00
2018-12-02T09:18:20.176Z,90.00
2018-12-02T09:19:20.155Z,90.00
2018-12-02T09:20:20.186Z,90.00
2018-12-02T09:21:20.190Z,84.38
2018-12-02T09:22:20.212Z,84.38
2018-12-02T09:23:20.230Z,84.38
2018-12-02T09:24:20.251Z,84.38
2018-12-02T09:25:20.273Z,90.00
2018-12-02T09:26:20.345Z,95.63
2018-12-02T09:27:20.309Z,101.25
2018-12-02T09:28:20.330Z,101.25
2018-12-02T09:29:20.351Z,101.25
2018-12-02T09:30:20.369Z,101.25
2018-12-02T09:31:20.391Z,101.25
2018-12-02T09:32:20.411Z,101.25
2018-12-02T09:33:20.437Z,101.25
2018-12-02T09:34:20.451Z,95.63
2018-12-02T09:35:20.470Z,90.00
2018-12-02T09:36:20.491Z,95.63
2018-12-02T09:37:20.515Z,101.25
2018-12-02T09:38:20.586Z,101.25
2018-12-02T09:39:20.553Z,101.25
2018-12-02T09:40:20.575Z,101.25
2018-12-02T09:41:20.654Z,101.25
2018-12-02T09:42:20.613Z,101.25
2018-12-02T09:43:20.633Z,95.63
2018-12-02T09:44:20.655Z,95.63
2018-12-02T09:45:20.675Z,95.63
2018-12-02T09:46:20.697Z,95.63
2018-12-02T09:47:20.715Z,95.63
2018-12-02T09:48:20.735Z,95.63
2018-12-02T09:49:20.756Z,95.63
2018-12-02T09:50:20.780Z,95.63
2018-12-02T09:51:20.798Z,90.00
2018-12-02T09:52:20.816Z,90.00
2018-12-02T09:53:20.836Z,95.63
2018-12-02T09:54:23.352Z,101.25
2018-12-02T09:55:20.905Z,101.25
2018-12-02T09:56:20.899Z,95.63
2018-12-02T09:57:20.919Z,95.63
2018-12-02T09:58:20.944Z,90.00
2018-12-02T09:59:20.961Z,90.00
2018-12-02T10:00:21.030Z,84.38
2018-12-02T10:01:21.003Z,84.38
2018-12-02T10:02:21.026Z,84.38
2018-12-02T10:03:21.042Z,90.00
2018-12-02T10:04:21.799Z,95.63
2018-12-02T10:05:21.086Z,95.63
2018-12-02T10:06:21.107Z,95.63
2018-12-02T10:07:21.126Z,95.63
2018-12-02T10:08:21.144Z,90.00
2018-12-02T10:09:21.165Z,84.38
2018-12-02T10:10:22.717Z,78.75
2018-12-02T10:11:21.207Z,78.75
2018-12-02T10:12:21.285Z,78.75
2018-12-02T10:13:21.253Z,78.75
2018-12-02T10:14:21.271Z,78.75
2018-12-02T10:15:21.295Z,78.75
2018-12-02T10:16:21.310Z,84.38
2018-12-02T10:17:21.333Z,78.75
2018-12-02T10:18:21.355Z,78.75
2018-12-02T10:19:21.372Z,73.13
2018-12-02T10:20:21.393Z,78.75
2018-12-02T10:21:21.413Z,78.75
2018-12-02T10:22:21.434Z,84.38
2018-12-02T10:23:21.455Z,90.00
2018-12-02T10:24:21.473Z,90.00
2018-12-02T10:25:21.495Z,90.00
2018-12-02T10:26:21.516Z,95.63
2018-12-02T10:27:21.538Z,95.63
2018-12-02T10:28:21.555Z,95.63
2018-12-02T10:29:21.576Z,95.63
2018-12-02T10:30:21.597Z,95.63
2018-12-02T10:31:21.619Z,95.63
2018-12-02T10:32:21.671Z,90.00
2018-12-02T10:33:21.659Z,90.00
2018-12-02T10:34:21.682Z,84.38
2018-12-02T10:35:21.698Z,78.75
2018-12-02T10:36:21.720Z,73.13
2018-12-02T10:37:21.743Z,67.50
2018-12-02T10:38:21.763Z,61.88
2018-12-02T10:39:21.785Z,61.88
2018-12-02T10:40:21.866Z,61.88
2018-12-02T10:41:21.864Z,61.88
2018-12-02T10:42:21.845Z,61.88
2018-12-02T10:43:21.867Z,56.25
2018-12-02T10:44:21.887Z,56.25
2018-12-02T10:45:21.906Z,56.25
2018-12-02T10:46:21.925Z,56.25
2018-12-02T10:47:21.948Z,56.25
2018-12-02T10:48:21.966Z,56.25
2018-12-02T10:49:21.989Z,56.25
2018-12-02T10:50:22.013Z,61.88
2018-12-02T10:51:22.033Z,67.50
2018-12-02T10:52:22.050Z,73.13
2018-12-02T10:53:22.072Z,78.75
2018-12-02T10:54:22.094Z,78.75
2018-12-02T10:55:22.113Z,84.38
2018-12-02T10:56:22.134Z,84.38
2018-12-02T11:01:22.236Z,112.50
2018-12-02T11:02:22.258Z,112.50
2018-12-02T11:03:22.280Z,112.50
2018-12-02T11:04:22.301Z,112.50
2018-12-02T11:05:22.321Z,112.50
2018-12-02T11:06:22.338Z,118.13
2018-12-02T11:07:22.361Z,118.13
2018-12-02T11:08:22.381Z,123.75
2018-12-02T11:09:22.404Z,135.00
2018-12-02T11:10:22.424Z,146.25
2018-12-02T11:11:22.444Z,146.25
2018-12-02T11:12:22.464Z,146.25
2018-12-02T11:13:22.485Z,140.63
2018-12-02T11:14:22.505Z,135.00
2018-12-02T11:15:22.527Z,129.38
2018-12-02T11:16:22.546Z,129.38
2018-12-02T11:17:22.568Z,123.75
2018-12-02T11:18:22.589Z,118.13
2018-12-02T11:19:22.613Z,118.13
2018-12-02T11:20:22.630Z,118.13
2018-12-02T11:21:22.682Z,112.50
2018-12-02T11:22:22.677Z,106.88
2018-12-02T11:23:22.698Z,106.88
2018-12-02T11:24:22.716Z,106.88
2018-12-02T11:25:22.740Z,106.88
2018-12-02T11:26:22.758Z,106.88
2018-12-02T11:27:22.778Z,112.50
2018-12-02T11:28:22.799Z,123.75
2018-12-02T11:29:22.821Z,123.75
2018-12-02T11:30:22.839Z,135.00
2018-12-02T11:31:22.862Z,129.38
2018-12-02T11:32:22.884Z,129.38
2018-12-02T11:33:22.902Z,135.00
2018-12-02T11:34:22.927Z,129.38
2018-12-02T11:35:22.946Z,129.38
2018-12-02T11:36:22.969Z,129.38
2018-12-02T11:37:22.987Z,129.38
2018-12-02T11:38:23.009Z,135.00
2018-12-02T11:39:23.033Z,135.00
2018-12-02T11:40:23.154Z,135.00
2018-12-02T11:41:23.074Z,135.00
2018-12-02T11:42:23.100Z,129.38
2018-12-02T11:43:23.119Z,123.75
2018-12-02T11:44:23.140Z,118.13
2018-12-02T11:45:23.157Z,118.13
2018-12-02T11:46:23.178Z,118.13
2018-12-02T11:47:23.199Z,118.13
2018-12-02T11:48:23.224Z,118.13
2018-12-02T11:49:23.243Z,112.50
2018-12-02T11:50:23.265Z,106.88
2018-12-02T11:51:23.289Z,101.25
2018-12-02T11:52:23.307Z,95.63
2018-12-02T11:53:23.329Z,95.63
2018-12-02T11:54:23.351Z,90.00
2018-12-02T11:55:23.375Z,95.63
2018-12-02T11:56:23.392Z,95.63
2018-12-02T11:57:26.548Z,101.25
2018-12-02T11:58:23.438Z,101.25
2018-12-02T11:59:23.458Z,95.63
2018-12-02T12:00:23.478Z,90.00
2018-12-02T12:01:23.501Z,90.00
2018-12-02T12:02:23.533Z,78.75
2018-12-02T12:03:23.551Z,78.75
2018-12-02T12:04:23.565Z,84.38
2018-12-02T12:05:23.585Z,78.75
2018-12-02T12:06:23.612Z,78.75
2018-12-02T12:07:23.634Z,73.13
2018-12-02T12:08:23.652Z,73.13
2018-12-02T12:09:23.672Z,73.13
2018-12-02T12:10:23.694Z,73.13
2018-12-02T12:11:23.715Z,73.13
2018-12-02T12:12:23.738Z,73.13
2018-12-02T12:13:23.761Z,73.13
2018-12-02T12:14:23.779Z,78.75
2018-12-02T12:15:23.799Z,90.00
2018-12-02T12:16:23.825Z,90.00
2018-12-02T12:17:23.843Z,90.00
2018-12-02T12:18:23.879Z,90.00
2018-12-02T12:19:23.890Z,90.00
2018-12-02T12:20:23.920Z,90.00
2018-12-02T12:21:23.931Z,95.63
2018-12-02T12:22:23.953Z,95.63
2018-12-02T12:23:23.976Z,101.25
2018-12-02T12:24:23.994Z,101.25
2018-12-02T12:25:24.013Z,101.25
2018-12-02T12:26:24.065Z,95.63
2018-12-02T12:27:24.057Z,95.63
2018-12-02T12:28:24.079Z,90.00
2018-12-02T12:29:24.099Z,95.63
2018-12-02T12:30:24.124Z,90.00
2018-12-02T12:31:24.140Z,90.00
2018-12-02T12:32:24.162Z,84.38
2018-12-02T12:33:24.186Z,90.00
2018-12-02T12:34:24.206Z,90.00
2018-12-02T12:35:24.226Z,90.00
2018-12-02T12:36:24.247Z,90.00
2018-12-02T12:37:24.267Z,90.00
2018-12-02T12:38:24.298Z,84.38
2018-12-02T12:39:24.313Z,78.75
2018-12-02T12:40:24.332Z,78.75
2018-12-02T12:41:24.357Z,78.75
2018-12-02T12:42:24.378Z,73.13
2018-12-02T12:43:24.402Z,73.13
2018-12-02T12:44:24.421Z,67.50
2018-12-02T12:45:24.438Z,67.50
2018-12-02T12:46:24.459Z,61.88
2018-12-02T12:47:24.484Z,61.88
2018-12-02T12:48:24.501Z,61.88
2018-12-02T12:49:24.532Z,56.25
2018-12-02T12:50:24.547Z,56.25
2018-12-02T12:51:24.568Z,56.25
2018-12-02T12:52:24.588Z,50.63
2018-12-02T12:53:24.612Z,50.63
2018-12-02T12:54:24.628Z,50.63
2018-12-02T12:55:24.652Z,45.00
2018-12-02T12:56:24.669Z,45.00
2018-12-02T12:57:24.691Z,45.00
2018-12-02T12:58:24.715Z,45.00
2018-12-02T12:59:24.737Z,45.00
2018-12-02T13:00:24.757Z,45.00
2018-12-02T13:01:24.777Z,45.00
2018-12-02T13:02:24.796Z,45.00
2018-12-02T13:03:24.817Z,45.00
2018-12-02T13:04:24.845Z,45.00
2018-12-02T13:05:24.863Z,45.00
2018-12-02T13:06:24.881Z,45.00
2018-12-02T13:07:24.904Z,45.00